createdAt,value
2023-10-24T00:02:06.491Z,4.30
2023-10-24T00:04:33.415Z,4.65
2023-10-24T00:07:00.179Z,4.55
2023-10-24T00:09:26.966Z,4.47
2023-10-24T00:11:53.768Z,4.88
2023-10-24T00:14:21.362Z,4.32
2023-10-24T00:16:48.400Z,4.70
2023-10-24T00:19:15.409Z,4.60
2023-10-24T00:21:42.340Z,4.53
2023-10-24T00:24:09.725Z,4.20
2023-10-24T00:26:36.464Z,4.47
2023-10-24T00:29:03.885Z,4.88
2023-10-24T00:31:30.854Z,4.95
2023-10-24T00:33:57.788Z,4.40
2023-10-24T00:36:24.710Z,4.85
2023-10-24T00:38:51.566Z,5.07
2023-10-24T00:41:18.439Z,4.38
2023-10-24T00:43:45.786Z,4.68
2023-10-24T00:46:13.516Z,4.53
2023-10-24T00:48:40.823Z,4.18
2023-10-24T00:51:07.599Z,4.65
2023-10-24T00:53:34.529Z,4.15
2023-10-24T00:56:02.635Z,4.30
2023-10-24T00:58:30.043Z,4.05
2023-10-24T01:00:57.816Z,4.35
2023-10-24T01:03:25.122Z,4.30
2023-10-24T01:05:52.031Z,4.53
2023-10-24T01:08:19.465Z,4.95
2023-10-24T01:10:46.497Z,4.70
2023-10-24T01:13:13.333Z,4.63
2023-10-24T01:15:40.196Z,3.83
2023-10-24T01:18:07.128Z,4.18
2023-10-24T01:20:33.957Z,4.25
2023-10-24T01:23:00.781Z,4.40
2023-10-24T01:25:30.087Z,4.28
2023-10-24T01:27:57.739Z,4.15
2023-10-24T01:30:24.638Z,4.15
2023-10-24T01:32:51.468Z,3.90
2023-10-24T01:35:18.458Z,4.32
2023-10-24T01:37:45.325Z,3.83
2023-10-24T01:40:12.494Z,3.83
2023-10-24T01:42:40.063Z,3.45
2023-10-24T01:45:07.852Z,3.58
2023-10-24T01:47:34.748Z,3.90
2023-10-24T01:50:02.103Z,3.35
2023-10-24T01:52:28.859Z,3.95
2023-10-24T01:54:55.965Z,3.65
2023-10-24T01:57:22.795Z,4.18
2023-10-24T01:59:49.581Z,3.22
2023-10-24T02:02:16.617Z,3.20
2023-10-24T02:04:43.668Z,3.53
2023-10-24T02:07:11.005Z,3.95
2023-10-24T02:09:37.872Z,3.78
2023-10-24T02:12:05.257Z,3.70
2023-10-24T02:14:32.372Z,3.67
2023-10-24T02:16:59.154Z,4.40
2023-10-24T02:19:26.856Z,4.78
2023-10-24T02:21:53.881Z,4.47
2023-10-24T02:24:20.798Z,4.05
2023-10-24T02:26:47.681Z,4.47
2023-10-24T02:29:14.629Z,4.35
2023-10-24T02:31:42.049Z,4.88
2023-10-24T02:34:09.080Z,5.25
2023-10-24T02:36:36.022Z,4.82
2023-10-24T02:39:03.290Z,4.93
2023-10-24T02:41:30.026Z,4.95
2023-10-24T02:43:56.883Z,4.82
2023-10-24T02:46:23.749Z,4.63
2023-10-24T02:48:50.674Z,5.07
2023-10-24T02:51:17.415Z,4.60
2023-10-24T02:53:44.934Z,4.97
2023-10-24T02:56:12.038Z,4.90
2023-10-24T02:58:39.160Z,4.82
2023-10-24T03:01:06.219Z,4.57
2023-10-24T03:03:34.124Z,5.57
2023-10-24T03:06:01.452Z,5.30
2023-10-24T03:08:28.629Z,4.97
2023-10-24T03:10:55.616Z,4.45
2023-10-24T03:13:22.509Z,5.25
2023-10-24T03:15:49.677Z,5.15
2023-10-24T03:18:16.645Z,5.00
2023-10-24T03:20:43.453Z,5.78
2023-10-24T03:23:10.594Z,5.43
2023-10-24T03:25:44.241Z,5.65
2023-10-24T03:28:11.104Z,5.68
2023-10-24T03:30:37.873Z,6.03
2023-10-24T03:33:05.066Z,6.10
2023-10-24T03:35:34.028Z,5.82
2023-10-24T03:38:02.454Z,6.60
2023-10-24T03:40:29.568Z,7.18
2023-10-24T03:42:56.868Z,7.03
2023-10-24T03:45:23.765Z,7.03
2023-10-24T03:47:50.632Z,8.35
2023-10-24T03:50:17.701Z,7.55
2023-10-24T03:52:45.066Z,7.95
2023-10-24T03:55:12.805Z,7.57
2023-10-24T03:57:40.369Z,9.27
2023-10-24T04:00:10.998Z,9.02
2023-10-24T04:02:37.877Z,8.95
2023-10-24T04:05:05.042Z,9.38
2023-10-24T04:07:31.923Z,9.05
2023-10-24T04:09:58.788Z,9.48
2023-10-24T04:12:25.655Z,9.45
2023-10-24T04:14:52.497Z,10.82
2023-10-24T04:17:19.359Z,9.25
2023-10-24T04:19:47.093Z,10.00
2023-10-24T04:22:15.186Z,10.00
2023-10-24T04:24:42.224Z,10.60
2023-10-24T04:27:09.531Z,9.88
2023-10-24T04:29:36.576Z,9.55
2023-10-24T04:32:04.962Z,10.48
2023-10-24T04:34:31.907Z,11.38
2023-10-24T04:36:59.121Z,10.50
2023-10-24T04:39:26.469Z,11.00
2023-10-24T04:41:53.283Z,11.48
2023-10-24T04:44:20.550Z,11.15
2023-10-24T04:46:47.642Z,11.10
2023-10-24T04:49:17.199Z,11.55
2023-10-24T04:51:44.338Z,10.75
2023-10-24T04:54:11.203Z,10.80
2023-10-24T04:56:37.965Z,11.13
2023-10-24T04:59:04.860Z,11.57
2023-10-24T05:01:38.684Z,10.65
2023-10-24T05:04:07.349Z,11.50
2023-10-24T05:06:34.390Z,11.50
2023-10-24T05:09:01.319Z,11.40
2023-10-24T05:11:28.475Z,12.02
2023-10-24T05:13:55.391Z,11.55
2023-10-24T05:16:22.400Z,11.75
2023-10-24T05:18:50.280Z,12.60
2023-10-24T05:21:17.129Z,12.13
2023-10-24T05:23:43.997Z,11.70
2023-10-24T05:26:10.769Z,12.68
2023-10-24T05:28:37.576Z,13.00
2023-10-24T05:31:09.106Z,12.45
2023-10-24T05:38:34.123Z,13.20
2023-10-24T05:41:01.319Z,12.48
2023-10-24T05:43:28.458Z,12.85
2023-10-24T05:45:55.794Z,14.48
2023-10-24T05:48:23.496Z,14.23
2023-10-24T05:50:50.366Z,13.43
2023-10-24T05:53:17.268Z,14.48
2023-10-24T05:55:44.187Z,14.00
2023-10-24T05:58:11.082Z,14.80
2023-10-24T06:00:37.866Z,14.38
2023-10-24T06:03:04.905Z,15.43
2023-10-24T06:05:31.789Z,14.82
2023-10-24T06:07:59.866Z,14.70
2023-10-24T06:10:26.800Z,13.75
2023-10-24T06:12:53.706Z,14.90
2023-10-24T06:15:20.564Z,15.52
2023-10-24T06:17:47.397Z,15.38
2023-10-24T06:20:14.394Z,14.85
2023-10-24T06:22:41.760Z,14.73
2023-10-24T06:25:10.248Z,13.63
2023-10-24T06:27:36.985Z,14.10
2023-10-24T06:30:04.425Z,14.35
2023-10-24T06:32:31.698Z,15.10
2023-10-24T06:34:58.697Z,14.30
2023-10-24T06:37:25.524Z,14.68
2023-10-24T06:39:52.541Z,14.13
2023-10-24T06:42:19.452Z,14.95
2023-10-24T06:44:46.328Z,14.32
2023-10-24T06:47:13.026Z,14.95
2023-10-24T06:49:40.176Z,15.20
2023-10-24T06:52:07.666Z,15.57
2023-10-24T06:54:34.549Z,14.98
2023-10-24T06:57:01.417Z,15.63
2023-10-24T06:59:28.272Z,14.57
2023-10-24T07:01:55.181Z,14.43
2023-10-24T07:04:22.165Z,15.55
2023-10-24T07:06:49.605Z,14.82
2023-10-24T07:09:16.825Z,14.02
2023-10-24T07:11:43.706Z,15.13
2023-10-24T07:14:10.437Z,15.15
2023-10-24T07:16:37.369Z,14.68
2023-10-24T07:19:04.176Z,14.70
2023-10-24T07:21:30.963Z,15.07
2023-10-24T07:23:59.303Z,14.60
2023-10-24T07:26:26.246Z,13.60
2023-10-24T07:28:53.187Z,14.45
2023-10-24T07:31:20.035Z,14.88
2023-10-24T07:33:47.808Z,14.23
2023-10-24T07:36:14.604Z,13.88
2023-10-24T07:38:41.727Z,14.23
2023-10-24T07:41:09.157Z,13.15
2023-10-24T07:43:35.960Z,12.95
2023-10-24T07:46:02.792Z,12.80
2023-10-24T07:48:29.733Z,13.13
2023-10-24T07:50:57.943Z,13.93
2023-10-24T07:53:26.354Z,13.80
2023-10-24T07:55:54.071Z,13.32
2023-10-24T07:58:21.493Z,13.18
2023-10-24T08:00:49.493Z,12.85
2023-10-24T08:03:17.594Z,13.70
2023-10-24T08:05:45.092Z,13.93
2023-10-24T08:08:12.066Z,12.63
2023-10-24T08:10:40.596Z,13.18
2023-10-24T08:13:07.540Z,12.65
2023-10-24T08:15:34.427Z,13.02
2023-10-24T08:18:01.234Z,13.75
2023-10-24T08:20:28.198Z,12.20
2023-10-24T08:22:56.078Z,12.30
2023-10-24T08:25:23.098Z,12.13
2023-10-24T08:27:49.986Z,12.73
2023-10-24T08:30:16.933Z,12.50
2023-10-24T08:32:43.823Z,13.90
2023-10-24T08:35:10.999Z,12.98
2023-10-24T08:37:37.935Z,13.05
2023-10-24T08:40:05.309Z,12.85
2023-10-24T08:42:32.306Z,13.25
2023-10-24T08:45:01.206Z,12.68
2023-10-24T08:47:30.599Z,13.48
2023-10-24T08:50:00.850Z,12.15
2023-10-24T08:52:30.982Z,13.07
2023-10-24T08:55:07.054Z,13.23
2023-10-24T08:57:41.943Z,13.43
2023-10-24T09:00:15.162Z,12.80
2023-10-24T09:02:43.419Z,12.52
2023-10-24T09:05:11.634Z,12.57
2023-10-24T09:07:38.641Z,13.27
2023-10-24T09:10:06.308Z,13.20
2023-10-24T09:12:34.083Z,12.75
2023-10-24T09:15:01.907Z,13.25
2023-10-24T09:17:32.760Z,14.10
2023-10-24T09:20:00.423Z,12.95
2023-10-24T09:22:33.012Z,13.50
2023-10-24T09:25:02.944Z,13.43
2023-10-24T09:27:29.977Z,13.60
2023-10-24T09:29:56.921Z,12.98
2023-10-24T09:32:23.749Z,13.20
2023-10-24T09:34:50.613Z,15.25
2023-10-24T09:37:18.086Z,13.52
2023-10-24T09:39:55.311Z,13.80
2023-10-24T09:42:32.871Z,12.70
2023-10-24T09:45:06.835Z,14.13
2023-10-24T09:47:35.083Z,13.73
2023-10-24T09:50:03.707Z,13.57
2023-10-24T09:52:31.401Z,13.50
2023-10-24T09:54:59.723Z,13.15
2023-10-24T09:57:28.209Z,15.52
2023-10-24T09:59:58.954Z,13.45
2023-10-24T10:02:27.780Z,13.52
2023-10-24T10:04:55.379Z,13.82
2023-10-24T10:07:22.880Z,13.82
2023-10-24T10:09:55.073Z,14.68
2023-10-24T10:12:22.112Z,13.52
2023-10-24T10:15:13.317Z,13.55
2023-10-24T10:17:56.240Z,14.35
2023-10-24T10:20:56.215Z,12.43
2023-10-24T10:23:26.001Z,14.23
2023-10-24T10:25:59.939Z,12.85
2023-10-24T10:28:42.239Z,13.00
2023-10-24T10:32:49.160Z,13.30
2023-10-24T10:34:19.788Z,13.23
2023-10-24T10:36:55.955Z,12.50
2023-10-24T10:39:22.835Z,13.43
2023-10-24T10:41:49.603Z,12.43
2023-10-24T10:44:34.789Z,13.45
2023-10-24T10:47:03.356Z,12.82
2023-10-24T10:49:49.843Z,12.48
2023-10-24T10:52:30.264Z,12.10
2023-10-24T10:55:21.049Z,12.27
2023-10-24T10:58:03.409Z,12.00
2023-10-24T11:00:43.583Z,12.55
2023-10-24T11:03:20.498Z,12.30
2023-10-24T11:05:50.646Z,13.10
2023-10-24T11:08:21.471Z,12.65
2023-10-24T11:11:04.134Z,12.50
2023-10-24T11:13:31.685Z,12.23
2023-10-24T11:15:58.524Z,12.95
2023-10-24T11:18:27.404Z,11.80
2023-10-24T11:20:54.642Z,12.60
2023-10-24T11:23:22.456Z,12.32
2023-10-24T11:25:50.114Z,11.63
2023-10-24T11:28:17.761Z,12.52
2023-10-24T11:30:44.562Z,12.40
2023-10-24T11:33:11.440Z,11.77
2023-10-24T11:35:38.460Z,11.80
2023-10-24T11:38:05.451Z,12.63
2023-10-24T11:40:32.419Z,12.93
2023-10-24T11:43:06.847Z,13.35
2023-10-24T11:45:34.715Z,12.00
2023-10-24T11:48:01.582Z,12.85
2023-10-24T11:50:38.324Z,12.60
2023-10-24T11:53:05.272Z,11.95
2023-10-24T11:55:34.744Z,11.90
2023-10-24T11:58:03.225Z,13.15
2023-10-24T12:00:34.377Z,11.65
2023-10-24T12:03:05.820Z,12.10
2023-10-24T12:05:34.020Z,12.35
2023-10-24T12:08:02.129Z,11.98
2023-10-24T12:10:33.623Z,12.20
2023-10-24T12:13:04.959Z,12.52
2023-10-24T12:15:32.237Z,11.88
2023-10-24T12:18:05.325Z,13.15
2023-10-24T12:20:32.374Z,12.27
2023-10-24T12:22:59.356Z,15.05
2023-10-24T12:25:26.341Z,12.82
2023-10-24T12:27:53.207Z,12.75
2023-10-24T12:30:20.704Z,12.93
2023-10-24T12:32:47.785Z,12.68
2023-10-24T12:35:14.754Z,12.95
2023-10-24T12:37:41.640Z,13.13
2023-10-24T12:40:09.003Z,12.35
2023-10-24T12:42:35.859Z,12.73
2023-10-24T12:45:03.618Z,11.70
2023-10-24T12:47:30.672Z,12.57
2023-10-24T12:49:58.782Z,12.82
2023-10-24T12:52:25.798Z,12.85
2023-10-24T12:54:52.683Z,13.70
2023-10-24T12:57:19.879Z,13.15
2023-10-24T12:59:48.921Z,12.73
2023-10-24T13:02:15.956Z,12.10
2023-10-24T13:04:45.756Z,12.52
2023-10-24T13:07:13.938Z,12.85
2023-10-24T13:09:41.452Z,12.48
2023-10-24T13:12:11.687Z,12.75
2023-10-24T13:14:39.140Z,13.10
2023-10-24T13:17:15.645Z,13.32
2023-10-24T13:19:44.400Z,12.57
2023-10-24T13:22:11.479Z,13.25
2023-10-24T13:24:38.803Z,12.48
2023-10-24T13:27:07.006Z,13.00
2023-10-24T13:29:34.214Z,13.20
2023-10-24T13:32:02.986Z,12.75
2023-10-24T13:37:01.183Z,13.40
2023-10-24T13:39:28.088Z,12.90
2023-10-24T13:41:54.922Z,13.10
2023-10-24T13:44:21.747Z,12.73
2023-10-24T13:46:48.634Z,12.77
2023-10-24T13:49:15.644Z,12.95
2023-10-24T13:51:42.598Z,12.90
2023-10-24T13:54:09.467Z,11.88
2023-10-24T13:56:36.397Z,13.23
2023-10-24T13:59:03.318Z,13.77
2023-10-24T14:01:30.410Z,12.85
2023-10-24T14:03:57.398Z,13.10
2023-10-24T14:06:24.419Z,12.90
2023-10-24T14:08:51.365Z,13.23
2023-10-24T14:11:18.258Z,12.38
2023-10-24T14:13:45.214Z,13.02
2023-10-24T14:16:12.432Z,12.27
2023-10-24T14:18:39.336Z,12.07
2023-10-24T14:21:06.680Z,12.07
2023-10-24T14:23:33.487Z,11.63
2023-10-24T14:26:02.161Z,12.02
2023-10-24T14:28:29.461Z,12.63
2023-10-24T14:30:56.239Z,12.02
2023-10-24T14:33:23.495Z,12.45
2023-10-24T14:35:50.508Z,13.10
2023-10-24T14:38:17.281Z,11.93
2023-10-24T14:40:44.580Z,12.40
2023-10-24T14:43:11.395Z,12.63
2023-10-24T14:45:39.288Z,12.52
2023-10-24T14:48:08.019Z,12.50
2023-10-24T14:50:35.030Z,12.77
2023-10-24T14:53:02.189Z,13.10
2023-10-24T14:55:29.143Z,12.88
2023-10-24T14:57:55.950Z,13.50
2023-10-24T15:00:22.889Z,13.48
2023-10-24T15:02:49.822Z,13.48
2023-10-24T15:05:16.999Z,13.38
2023-10-24T15:07:44.039Z,12.73
2023-10-24T15:10:10.929Z,13.38
2023-10-24T15:12:37.846Z,13.95
2023-10-24T15:15:05.379Z,13.65
2023-10-24T15:17:32.866Z,14.00
2023-10-24T15:19:59.780Z,13.23
2023-10-24T15:22:26.798Z,13.90
2023-10-24T15:24:54.157Z,13.85
2023-10-24T15:27:20.962Z,14.50
2023-10-24T15:29:47.788Z,14.25
2023-10-24T15:32:16.323Z,14.20
2023-10-24T15:34:43.810Z,15.13
2023-10-24T15:37:11.182Z,14.63
2023-10-24T15:39:38.555Z,16.75
2023-10-24T15:42:05.870Z,16.15
2023-10-24T15:44:32.771Z,16.85
2023-10-24T15:46:59.797Z,15.75
2023-10-24T15:49:26.960Z,16.70
2023-10-24T15:51:54.287Z,17.52
2023-10-24T15:54:21.467Z,18.40
2023-10-24T15:56:48.570Z,18.10
2023-10-24T15:59:16.129Z,17.63
2023-10-24T16:01:45.042Z,19.15
2023-10-24T16:04:11.987Z,18.48
2023-10-24T16:06:38.840Z,20.08
2023-10-24T16:09:05.726Z,19.75
2023-10-24T16:11:32.555Z,19.23
2023-10-24T16:14:01.278Z,20.33
2023-10-24T16:16:28.299Z,20.00
2023-10-24T16:18:56.698Z,20.40
2023-10-24T16:21:24.296Z,20.50
2023-10-24T16:23:51.163Z,20.23
2023-10-24T16:26:18.060Z,21.58
2023-10-24T16:28:45.539Z,20.40
2023-10-24T16:31:14.249Z,20.30
2023-10-24T16:33:41.695Z,20.17
2023-10-24T16:36:08.804Z,20.80
2023-10-24T16:38:35.674Z,21.45
2023-10-24T16:41:02.777Z,20.63
2023-10-24T16:43:32.992Z,20.00
2023-10-24T16:46:00.668Z,20.40
2023-10-24T16:48:29.201Z,20.60
2023-10-24T16:50:57.343Z,22.02
2023-10-24T16:53:25.337Z,21.75
2023-10-24T16:55:59.505Z,19.75
2023-10-24T16:58:26.538Z,20.30
2023-10-24T17:00:56.210Z,20.02
2023-10-24T17:03:23.899Z,19.73
2023-10-24T17:05:52.476Z,19.50
2023-10-24T17:08:21.612Z,19.77
2023-10-24T17:10:58.213Z,19.25
2023-10-24T17:13:27.146Z,19.05
2023-10-24T17:15:58.142Z,18.75
2023-10-24T17:18:27.581Z,19.65
2023-10-24T17:20:57.468Z,19.05
2023-10-24T17:23:29.426Z,18.25
2023-10-24T17:25:57.165Z,18.48
2023-10-24T17:28:24.904Z,18.60
2023-10-24T17:30:52.780Z,17.77
2023-10-24T17:33:19.724Z,17.30
2023-10-24T17:35:46.628Z,18.35
2023-10-24T17:38:13.476Z,16.10
2023-10-24T17:40:44.303Z,16.88
2023-10-24T17:43:11.141Z,16.15
2023-10-24T17:45:41.563Z,15.50
2023-10-24T17:48:08.603Z,16.10
2023-10-24T17:50:36.802Z,16.80
2023-10-24T17:53:04.985Z,16.30
2023-10-24T17:55:36.628Z,16.17
2023-10-24T17:58:04.082Z,17.38
2023-10-24T18:00:32.949Z,15.38
2023-10-24T18:02:59.979Z,14.90
2023-10-24T18:05:27.100Z,16.30
2023-10-24T18:07:57.323Z,14.77
2023-10-24T18:10:24.612Z,14.68
2023-10-24T18:12:52.726Z,13.73
2023-10-24T18:15:20.692Z,13.80
2023-10-24T18:17:47.619Z,13.43
2023-10-24T18:20:14.530Z,13.35
2023-10-24T18:22:41.720Z,14.52
2023-10-24T18:25:11.046Z,15.23
2023-10-24T18:27:38.102Z,13.02
2023-10-24T18:30:06.581Z,13.02
2023-10-24T18:32:36.823Z,12.98
2023-10-24T18:35:04.249Z,13.35
2023-10-24T18:37:32.766Z,12.82
2023-10-24T18:39:59.532Z,13.07
2023-10-24T18:42:30.468Z,12.32
2023-10-24T18:44:58.953Z,12.65
2023-10-24T18:47:26.071Z,12.48
2023-10-24T18:49:54.229Z,12.10
2023-10-24T18:52:24.504Z,11.93
2023-10-24T18:54:55.341Z,12.48
2023-10-24T18:57:22.282Z,12.73
2023-10-24T18:59:59.947Z,11.82
2023-10-24T19:02:27.240Z,11.43
2023-10-24T19:04:56.192Z,12.30
2023-10-24T19:07:23.516Z,12.02
2023-10-24T19:09:50.954Z,11.95
2023-10-24T19:12:18.337Z,12.15
2023-10-24T19:14:46.067Z,11.82
2023-10-24T19:17:13.597Z,11.15
2023-10-24T19:19:41.214Z,11.55
2023-10-24T19:22:10.420Z,10.80
2023-10-24T19:24:37.749Z,11.32
2023-10-24T19:27:05.651Z,11.77
2023-10-24T19:29:32.926Z,10.48
2023-10-24T19:32:00.144Z,11.48
2023-10-24T19:34:27.598Z,12.15
2023-10-24T19:36:55.542Z,10.77
2023-10-24T19:39:23.058Z,10.57
2023-10-24T19:41:50.601Z,11.43
2023-10-24T19:44:17.678Z,11.20
2023-10-24T19:46:47.419Z,11.45
2023-10-24T19:49:14.787Z,10.95
2023-10-24T19:51:42.123Z,10.55
2023-10-24T19:54:11.448Z,11.82
2023-10-24T19:56:40.067Z,11.38
2023-10-24T19:59:07.336Z,11.45
2023-10-24T20:01:37.011Z,11.05
2023-10-24T20:04:04.693Z,10.98
2023-10-24T20:06:36.127Z,11.13
2023-10-24T20:09:06.481Z,11.43
2023-10-24T20:12:37.992Z,10.55
2023-10-24T20:14:23.771Z,10.65
2023-10-24T20:16:56.464Z,11.30
2023-10-24T20:19:23.673Z,12.30
2023-10-24T20:21:50.770Z,11.20
2023-10-24T20:24:17.958Z,11.40
2023-10-24T20:26:45.483Z,10.77
2023-10-24T20:29:12.218Z,11.13
2023-10-24T20:31:39.261Z,10.82
2023-10-24T20:34:06.402Z,11.27
2023-10-24T20:36:35.495Z,10.73
2023-10-24T20:39:02.312Z,11.82
2023-10-24T20:41:29.162Z,9.95
2023-10-24T20:43:56.587Z,10.70
2023-10-24T20:46:23.458Z,9.68
2023-10-24T20:48:50.244Z,10.27
2023-10-24T20:51:17.205Z,9.82
2023-10-24T20:53:44.167Z,9.80
2023-10-24T20:56:11.017Z,10.52
2023-10-24T20:58:37.873Z,10.98
2023-10-24T21:01:04.812Z,9.45
2023-10-24T21:03:31.746Z,9.98
2023-10-24T21:05:59.599Z,9.68
2023-10-24T21:08:26.572Z,10.45
2023-10-24T21:10:57.202Z,10.40
2023-10-24T21:13:24.003Z,9.55
2023-10-24T21:15:58.025Z,9.68
2023-10-24T21:18:25.089Z,9.90
2023-10-24T21:20:52.076Z,9.95
2023-10-24T21:23:18.847Z,9.70
2023-10-24T21:25:45.674Z,10.60
2023-10-24T21:28:13.005Z,9.77
2023-10-24T21:30:40.589Z,10.23
2023-10-24T21:33:08.441Z,10.32
2023-10-24T21:35:53.635Z,10.95
2023-10-24T21:38:20.385Z,9.70
2023-10-24T21:40:54.202Z,9.93
2023-10-24T21:43:23.774Z,10.52
2023-10-24T21:45:51.622Z,9.90
2023-10-24T21:48:18.441Z,10.45
2023-10-24T21:50:45.569Z,10.45
2023-10-24T21:53:12.311Z,10.20
2023-10-24T21:55:39.117Z,11.95
2023-10-24T21:58:06.018Z,10.43
2023-10-24T22:00:33.431Z,11.90
2023-10-24T22:03:00.496Z,10.73
2023-10-24T22:05:27.536Z,11.57
2023-10-24T22:07:55.189Z,10.77
2023-10-24T22:10:22.578Z,11.15
2023-10-24T22:12:49.570Z,11.00
2023-10-24T22:15:16.785Z,10.75
2023-10-24T22:17:43.958Z,11.20
2023-10-24T22:20:11.454Z,11.45
2023-10-24T22:22:38.369Z,12.50
2023-10-24T22:25:05.778Z,12.07
2023-10-24T22:27:32.907Z,11.65
2023-10-24T22:29:59.669Z,12.25
2023-10-24T22:32:26.573Z,11.55
2023-10-24T22:34:53.342Z,11.32
2023-10-24T22:37:20.137Z,11.43
2023-10-24T22:39:47.192Z,11.60
2023-10-24T22:42:14.226Z,12.07
2023-10-24T22:44:41.078Z,12.80
2023-10-24T22:47:07.923Z,11.52
2023-10-24T22:49:34.890Z,12.00
2023-10-24T22:52:01.849Z,13.57
2023-10-24T22:54:28.709Z,11.35
2023-10-24T22:56:55.629Z,12.02
2023-10-24T22:59:23.529Z,12.10
2023-10-24T23:01:51.016Z,12.82
2023-10-24T23:04:18.487Z,13.02
2023-10-24T23:06:45.411Z,12.07
2023-10-24T23:09:12.302Z,12.85
2023-10-24T23:11:39.144Z,12.70
2023-10-24T23:14:06.016Z,11.63
2023-10-24T23:16:32.984Z,11.85
2023-10-24T23:19:00.974Z,12.57
2023-10-24T23:21:27.681Z,13.65
2023-10-24T23:23:54.556Z,14.73
2023-10-24T23:26:21.273Z,14.32
2023-10-24T23:28:48.377Z,13.85
2023-10-24T23:31:15.259Z,13.35
2023-10-24T23:33:44.050Z,13.68
2023-10-24T23:36:10.913Z,13.48
2023-10-24T23:38:37.739Z,13.52
2023-10-24T23:41:04.570Z,13.82
2023-10-24T23:43:31.438Z,13.98
2023-10-24T23:45:58.252Z,13.55
2023-10-24T23:48:25.228Z,14.20
2023-10-24T23:50:52.656Z,13.77
2023-10-24T23:53:19.512Z,13.20
2023-10-24T23:55:46.311Z,13.23
2023-10-24T23:58:16.327Z,12.48
